Orbital elements of INTELSAT 601
| Launched | 28 October 1991 |
| Flight ended | – |
| Launch site | Europe's Spaceport, Kourou, French Guiana |
| Owner | International Telecommunications Satellite Organization (INTELSAT) |
| NORAD ID | 21765 |
| Alternative names |
IS-601 |
| Date fetched |
Epoch osculation |
Inc. [°] |
Ecc. | RA asc node [hr] |
Arg Peri. [°] |
Mean anom [°] |
Mean motion [rev/day] |
Abs. mag |
| Date fetched |
Epoch osculation |
Inc. [°] |
Ecc. | RA asc node [hr] |
Arg Peri. [°] |
Mean anom [°] |
Mean motion [rev/day] |
Abs. mag |
| 2026 May 08 17:57 | 2026 May 04 22:48:38 | 13.3477 | 0.00032 | 1.1503 | 315.7611 | 211.2763 | 0.99596 | – |
| 2026 May 07 17:58 | 2026 May 04 22:48:38 | 13.3477 | 0.00032 | 1.1503 | 315.7611 | 211.2763 | 0.99596 | – |
| 2026 May 06 17:57 | 2026 May 04 22:48:38 | 13.3477 | 0.00032 | 1.1503 | 315.7611 | 211.2763 | 0.99596 | – |
| 2026 May 05 17:57 | 2026 May 04 22:48:38 | 13.3477 | 0.00032 | 1.1503 | 315.7611 | 211.2763 | 0.99596 | – |
| 2026 May 04 17:57 | 2026 Apr 29 23:39:50 | 13.3426 | 0.00032 | 1.1526 | 315.6290 | 211.2763 | 0.99596 | – |
| 2026 May 03 17:57 | 2026 Apr 29 23:39:50 | 13.3426 | 0.00032 | 1.1526 | 315.6290 | 211.2763 | 0.99596 | – |
| 2026 May 02 17:57 | 2026 Apr 29 23:39:50 | 13.3426 | 0.00032 | 1.1526 | 315.6290 | 211.2763 | 0.99596 | – |
| 2026 May 01 17:56 | 2026 Apr 29 23:39:50 | 13.3426 | 0.00032 | 1.1526 | 315.6290 | 211.2763 | 0.99596 | – |
| 2026 Apr 30 17:56 | 2026 Apr 29 23:39:50 | 13.3426 | 0.00032 | 1.1526 | 315.6290 | 211.2763 | 0.99596 | – |
| 2026 Apr 29 17:57 | 2026 Apr 23 22:16:51 | 13.3367 | 0.00032 | 1.1555 | 316.2898 | 211.2763 | 0.99596 | – |
| 2026 Apr 28 17:56 | 2026 Apr 23 22:16:51 | 13.3367 | 0.00032 | 1.1555 | 316.2898 | 211.2763 | 0.99596 | – |
| 2026 Apr 27 17:58 | 2026 Apr 23 22:16:51 | 13.3367 | 0.00032 | 1.1555 | 316.2898 | 211.2763 | 0.99596 | – |
| 2026 Apr 26 17:58 | 2026 Apr 23 22:16:51 | 13.3367 | 0.00032 | 1.1555 | 316.2898 | 211.2763 | 0.99596 | – |
| 2026 Apr 25 17:58 | 2026 Apr 23 22:16:51 | 13.3367 | 0.00032 | 1.1555 | 316.2898 | 211.2763 | 0.99596 | – |
| 2026 Apr 24 17:59 | 2026 Apr 23 22:16:51 | 13.3367 | 0.00032 | 1.1555 | 316.2898 | 211.2763 | 0.99596 | – |
| 2026 Apr 23 17:57 | 2026 Apr 18 22:39:38 | 13.3317 | 0.00034 | 1.1580 | 315.9024 | 211.2763 | 0.99596 | – |
| 2026 Apr 22 17:57 | 2026 Apr 18 22:39:38 | 13.3317 | 0.00034 | 1.1580 | 315.9024 | 211.2763 | 0.99596 | – |
| 2026 Apr 21 17:57 | 2026 Apr 18 22:39:38 | 13.3317 | 0.00034 | 1.1580 | 315.9024 | 211.2763 | 0.99596 | – |
| 2026 Apr 20 17:57 | 2026 Apr 18 22:39:38 | 13.3317 | 0.00034 | 1.1580 | 315.9024 | 211.2763 | 0.99596 | – |
| 2026 Apr 19 17:58 | 2026 Apr 18 22:39:38 | 13.3317 | 0.00034 | 1.1580 | 315.9024 | 211.2763 | 0.99596 | – |
| 2026 Apr 18 17:56 | 2026 Apr 12 22:43:38 | 13.3257 | 0.00034 | 1.1608 | 313.8121 | 211.2763 | 0.99596 | – |
| 2026 Apr 16 17:57 | 2026 Apr 12 22:43:38 | 13.3257 | 0.00034 | 1.1608 | 313.8121 | 211.2763 | 0.99596 | – |
| 2026 Apr 14 17:57 | 2026 Apr 12 22:43:38 | 13.3257 | 0.00034 | 1.1608 | 313.8121 | 211.2763 | 0.99596 | – |
| 2026 Apr 13 17:57 | 2026 Apr 12 22:43:38 | 13.3257 | 0.00034 | 1.1608 | 313.8121 | 211.2763 | 0.99596 | – |
| 2026 Apr 12 17:57 | 2026 Apr 07 21:26:03 | 13.3205 | 0.00034 | 1.1632 | 311.1602 | 211.2763 | 0.99596 | – |
| 2026 Apr 11 17:57 | 2026 Apr 07 21:26:03 | 13.3205 | 0.00034 | 1.1632 | 311.1602 | 211.2763 | 0.99596 | – |